sensor_id;sensor_type;location;lat;lon;timestamp;pressure;altitude;pressure_sealevel;temperature;humidity
69982;BME280;57319;56.274;43.980;2023-07-31T00:00:29;98410.84;;;14.52;100.00
69982;BME280;57319;56.274;43.980;2023-07-31T00:02:55;98412.22;;;14.42;100.00
69982;BME280;57319;56.274;43.980;2023-07-31T00:05:21;98409.47;;;14.45;100.00
69982;BME280;57319;56.274;43.980;2023-07-31T00:07:47;98410.41;;;14.44;100.00
69982;BME280;57319;56.274;43.980;2023-07-31T00:10:12;98413.66;;;14.48;100.00
69982;BME280;57319;56.274;43.980;2023-07-31T00:12:40;98413.00;;;14.44;100.00
69982;BME280;57319;56.274;43.980;2023-07-31T00:15:07;98410.63;;;14.39;100.00
69982;BME280;57319;56.274;43.980;2023-07-31T00:17:33;98416.41;;;14.27;100.00
69982;BME280;57319;56.274;43.980;2023-07-31T00:19:59;98419.91;;;14.26;100.00
69982;BME280;57319;56.274;43.980;2023-07-31T00:22:25;98423.41;;;14.25;100.00
69982;BME280;57319;56.274;43.980;2023-07-31T00:24:51;98420.44;;;14.15;100.00
69982;BME280;57319;56.274;43.980;2023-07-31T00:27:17;98423.63;;;14.03;100.00
69982;BME280;57319;56.274;43.980;2023-07-31T00:29:43;98423.06;;;13.96;100.00
69982;BME280;57319;56.274;43.980;2023-07-31T00:32:09;98436.00;;;13.96;100.00
69982;BME280;57319;56.274;43.980;2023-07-31T00:34:34;98433.56;;;13.93;100.00
69982;BME280;57319;56.274;43.980;2023-07-31T00:37:00;98429.81;;;13.81;100.00
69982;BME280;57319;56.274;43.980;2023-07-31T00:39:25;98425.53;;;13.80;100.00
69982;BME280;57319;56.274;43.980;2023-07-31T00:41:51;98433.59;;;13.74;100.00
69982;BME280;57319;56.274;43.980;2023-07-31T00:44:17;98440.31;;;13.78;100.00
69982;BME280;57319;56.274;43.980;2023-07-31T00:46:42;98442.34;;;13.71;100.00
69982;BME280;57319;56.274;43.980;2023-07-31T00:49:08;98445.13;;;13.67;100.00
69982;BME280;57319;56.274;43.980;2023-07-31T00:51:34;98454.69;;;13.65;100.00
69982;BME280;57319;56.274;43.980;2023-07-31T00:54:00;98451.47;;;13.60;100.00
69982;BME280;57319;56.274;43.980;2023-07-31T00:56:26;98451.06;;;13.50;100.00
69982;BME280;57319;56.274;43.980;2023-07-31T00:58:53;98457.28;;;13.46;100.00
69982;BME280;57319;56.274;43.980;2023-07-31T01:01:18;98448.00;;;13.42;100.00
69982;BME280;57319;56.274;43.980;2023-07-31T01:03:44;98454.13;;;13.39;100.00
69982;BME280;57319;56.274;43.980;2023-07-31T01:11:57;98457.50;;;13.41;100.00
69982;BME280;57319;56.274;43.980;2023-07-31T01:14:25;98448.13;;;13.38;100.00
69982;BME280;57319;56.274;43.980;2023-07-31T01:16:50;98452.91;;;13.48;100.00
69982;BME280;57319;56.274;43.980;2023-07-31T01:19:18;98454.78;;;13.44;100.00
69982;BME280;57319;56.274;43.980;2023-07-31T01:25:15;98457.50;;;13.41;100.00
69982;BME280;57319;56.274;43.980;2023-07-31T01:27:34;98457.69;;;13.36;100.00
69982;BME280;57319;56.274;43.980;2023-07-31T01:30:11;98459.50;;;13.34;100.00
69982;BME280;57319;56.274;43.980;2023-07-31T01:32:43;98463.88;;;13.32;100.00
69982;BME280;57319;56.274;43.980;2023-07-31T01:35:09;98459.38;;;13.37;100.00
69982;BME280;57319;56.274;43.980;2023-07-31T01:37:35;98465.34;;;13.39;100.00
69982;BME280;57319;56.274;43.980;2023-07-31T01:40:03;98471.09;;;13.45;100.00
69982;BME280;57319;56.274;43.980;2023-07-31T01:42:30;98465.75;;;13.49;100.00
69982;BME280;57319;56.274;43.980;2023-07-31T01:44:56;98468.44;;;13.46;100.00
69982;BME280;57319;56.274;43.980;2023-07-31T01:47:21;98472.53;;;13.52;100.00
69982;BME280;57319;56.274;43.980;2023-07-31T01:49:48;98472.72;;;13.47;100.00
69982;BME280;57319;56.274;43.980;2023-07-31T01:52:14;98473.56;;;13.48;100.00
69982;BME280;57319;56.274;43.980;2023-07-31T01:54:40;98470.13;;;13.47;100.00
69982;BME280;57319;56.274;43.980;2023-07-31T01:57:06;98468.53;;;13.45;100.00
69982;BME280;57319;56.274;43.980;2023-07-31T01:59:31;98468.81;;;13.38;100.00
69982;BME280;57319;56.274;43.980;2023-07-31T02:01:57;98471.25;;;13.42;100.00
69982;BME280;57319;56.274;43.980;2023-07-31T02:04:23;98469.47;;;13.44;100.00
69982;BME280;57319;56.274;43.980;2023-07-31T02:06:48;98471.81;;;13.48;100.00
69982;BME280;57319;56.274;43.980;2023-07-31T02:09:14;98473.34;;;13.52;100.00
69982;BME280;57319;56.274;43.980;2023-07-31T02:11:39;98484.03;;;13.45;100.00
69982;BME280;57319;56.274;43.980;2023-07-31T02:14:05;98476.09;;;13.49;100.00
69982;BME280;57319;56.274;43.980;2023-07-31T02:16:31;98479.56;;;13.48;100.00
69982;BME280;57319;56.274;43.980;2023-07-31T02:18:57;98477.13;;;13.45;100.00
69982;BME280;57319;56.274;43.980;2023-07-31T02:21:23;98472.47;;;13.53;100.00
69982;BME280;57319;56.274;43.980;2023-07-31T02:23:48;98476.84;;;13.51;100.00
69982;BME280;57319;56.274;43.980;2023-07-31T02:26:14;98480.22;;;13.53;100.00
69982;BME280;57319;56.274;43.980;2023-07-31T02:28:40;98474.34;;;13.50;100.00
69982;BME280;57319;56.274;43.980;2023-07-31T02:31:08;98479.56;;;13.48;100.00
69982;BME280;57319;56.274;43.980;2023-07-31T02:33:34;98475.38;;;13.46;100.00
69982;BME280;57319;56.274;43.980;2023-07-31T02:35:59;98471.91;;;13.47;100.00
69982;BME280;57319;56.274;43.980;2023-07-31T02:38:25;98474.19;;;13.53;100.00
69982;BME280;57319;56.274;43.980;2023-07-31T02:40:50;98476.78;;;13.53;100.00
69982;BME280;57319;56.274;43.980;2023-07-31T02:43:16;98476.84;;;13.51;100.00
69982;BME280;57319;56.274;43.980;2023-07-31T02:45:42;98480.28;;;13.52;100.00
69982;BME280;57319;56.274;43.980;2023-07-31T02:48:07;98481.13;;;13.52;100.00
69982;BME280;57319;56.274;43.980;2023-07-31T02:50:33;98480.81;;;13.58;100.00
69982;BME280;57319;56.274;43.980;2023-07-31T02:52:59;98478.13;;;13.62;100.00
69982;BME280;57319;56.274;43.980;2023-07-31T02:55:24;98483.97;;;13.65;100.00
69982;BME280;57319;56.274;43.980;2023-07-31T02:57:50;98477.91;;;13.66;100.00
69982;BME280;57319;56.274;43.980;2023-07-31T03:00:17;98476.78;;;13.72;100.00
69982;BME280;57319;56.274;43.980;2023-07-31T03:02:43;98477.50;;;13.76;100.00
69982;BME280;57319;56.274;43.980;2023-07-31T03:05:09;98478.25;;;13.78;100.00
69982;BME280;57319;56.274;43.980;2023-07-31T03:07:34;98477.19;;;13.82;100.00
69982;BME280;57319;56.274;43.980;2023-07-31T03:10:00;98459.88;;;13.84;100.00
69982;BME280;57319;56.274;43.980;2023-07-31T03:12:26;98477.81;;;13.87;100.00
69982;BME280;57319;56.274;43.980;2023-07-31T03:14:52;98472.66;;;13.87;100.00
69982;BME280;57319;56.274;43.980;2023-07-31T03:17:17;98475.88;;;13.92;100.00
69982;BME280;57319;56.274;43.980;2023-07-31T03:19:43;98473.91;;;13.97;100.00
69982;BME280;57319;56.274;43.980;2023-07-31T03:22:09;98483.06;;;14.04;100.00
69982;BME280;57319;56.274;43.980;2023-07-31T03:24:34;98481.59;;;13.99;100.00
69982;BME280;57319;56.274;43.980;2023-07-31T03:27:00;98474.66;;;13.99;100.00
69982;BME280;57319;56.274;43.980;2023-07-31T03:29:25;98483.06;;;14.04;100.00
69982;BME280;57319;56.274;43.980;2023-07-31T03:31:51;98480.06;;;14.12;100.00
69982;BME280;57319;56.274;43.980;2023-07-31T03:34:17;98492.19;;;14.12;100.00
69982;BME280;57319;56.274;43.980;2023-07-31T03:36:43;98485.72;;;14.20;100.00
69982;BME280;57319;56.274;43.980;2023-07-31T03:39:08;98489.00;;;14.24;100.00
69982;BME280;57319;56.274;43.980;2023-07-31T03:41:34;98482.22;;;14.21;100.00
69982;BME280;57319;56.274;43.980;2023-07-31T03:43:59;98486.28;;;14.27;100.00
69982;BME280;57319;56.274;43.980;2023-07-31T03:46:25;98492.44;;;14.24;100.00
69982;BME280;57319;56.274;43.980;2023-07-31T03:48:51;98492.66;;;14.20;100.00
69982;BME280;57319;56.274;43.980;2023-07-31T03:51:17;98486.78;;;14.16;100.00
69982;BME280;57319;56.274;43.980;2023-07-31T03:53:43;98494.19;;;14.24;100.00
69982;BME280;57319;56.274;43.980;2023-07-31T03:56:10;98492.31;;;14.28;100.00
69982;BME280;57319;56.274;43.980;2023-07-31T03:58:36;98495.44;;;14.34;100.00
69982;BME280;57319;56.274;43.980;2023-07-31T04:01:03;98491.09;;;14.35;100.00
69982;BME280;57319;56.274;43.980;2023-07-31T04:03:29;98501.91;;;14.43;100.00
69982;BME280;57319;56.274;43.980;2023-07-31T04:05:55;98494.84;;;14.47;100.00
69982;BME280;57319;56.274;43.980;2023-07-31T04:08:22;98498.19;;;14.49;100.00
69982;BME280;57319;56.274;43.980;2023-07-31T04:10:48;98496.06;;;14.57;100.00
69982;BME280;57319;56.274;43.980;2023-07-31T04:13:14;98506.41;;;14.57;100.00
69982;BME280;57319;56.274;43.980;2023-07-31T04:15:40;98510.06;;;14.53;100.00
69982;BME280;57319;56.274;43.980;2023-07-31T04:18:05;98501.06;;;14.60;100.00
69982;BME280;57319;56.274;43.980;2023-07-31T04:20:31;98504.44;;;14.62;100.00
69982;BME280;57319;56.274;43.980;2023-07-31T04:22:57;98509.41;;;14.67;100.00
69982;BME280;57319;56.274;43.980;2023-07-31T04:25:22;98511.84;;;14.70;100.00
69982;BME280;57319;56.274;43.980;2023-07-31T04:27:48;98515.97;;;14.74;100.00
69982;BME280;57319;56.274;43.980;2023-07-31T04:30:14;98505.56;;;14.75;100.00
69982;BME280;57319;56.274;43.980;2023-07-31T04:32:39;98518.25;;;14.80;100.00
69982;BME280;57319;56.274;43.980;2023-07-31T04:35:05;98514.97;;;14.76;100.00
69982;BME280;57319;56.274;43.980;2023-07-31T04:37:31;98518.56;;;14.74;100.00
69982;BME280;57319;56.274;43.980;2023-07-31T04:39:57;98520.84;;;14.80;100.00
69982;BME280;57319;56.274;43.980;2023-07-31T04:42:22;98521.47;;;14.85;100.00
69982;BME280;57319;56.274;43.980;2023-07-31T04:44:48;98521.38;;;14.87;100.00
69982;BME280;57319;56.274;43.980;2023-07-31T04:47:14;98525.59;;;14.89;100.00
69982;BME280;57319;56.274;43.980;2023-07-31T04:49:39;98515.81;;;14.95;100.00
69982;BME280;57319;56.274;43.980;2023-07-31T04:52:05;98527.19;;;14.92;99.08
69982;BME280;57319;56.274;43.980;2023-07-31T04:54:31;98530.38;;;14.97;99.97
69982;BME280;57319;56.274;43.980;2023-07-31T04:56:56;98536.31;;;14.99;99.33
69982;BME280;57319;56.274;43.980;2023-07-31T04:59:22;98544.91;;;15.00;99.34
69982;BME280;57319;56.274;43.980;2023-07-31T05:01:48;98534.81;;;14.95;98.92
69982;BME280;57319;56.274;43.980;2023-07-31T05:04:14;98547.75;;;14.95;99.55
69982;BME280;57319;56.274;43.980;2023-07-31T05:06:40;98542.25;;;15.01;100.00
69982;BME280;57319;56.274;43.980;2023-07-31T05:09:06;98548.13;;;15.05;99.55
69982;BME280;57319;56.274;43.980;2023-07-31T05:11:32;98548.03;;;15.06;99.58
69982;BME280;57319;56.274;43.980;2023-07-31T05:13:57;98546.81;;;15.14;99.24
69982;BME280;57319;56.274;43.980;2023-07-31T05:16:23;98556.88;;;15.20;98.47
69982;BME280;57319;56.274;43.980;2023-07-31T05:18:49;98554.94;;;15.23;98.23
69982;BME280;57319;56.274;43.980;2023-07-31T05:21:14;98556.47;;;15.27;97.62
69982;BME280;57319;56.274;43.980;2023-07-31T05:23:40;98555.03;;;15.22;97.06
69982;BME280;57319;56.274;43.980;2023-07-31T05:26:06;98556.81;;;15.21;97.06
69982;BME280;57319;56.274;43.980;2023-07-31T05:28:34;98552.38;;;15.23;97.31
69982;BME280;57319;56.274;43.980;2023-07-31T05:31:01;98556.09;;;15.35;97.58
69982;BME280;57319;56.274;43.980;2023-07-31T05:33:27;98560.81;;;15.44;97.30
69982;BME280;57319;56.274;43.980;2023-07-31T05:35:53;98553.03;;;15.44;96.67
69982;BME280;57319;56.274;43.980;2023-07-31T05:38:19;98548.75;;;15.43;96.85
69982;BME280;57319;56.274;43.980;2023-07-31T05:40:44;98559.91;;;15.46;97.08
69982;BME280;57319;56.274;43.980;2023-07-31T05:43:10;98559.94;;;15.44;97.87
69982;BME280;57319;56.274;43.980;2023-07-31T05:45:36;98569.94;;;15.52;98.19
69982;BME280;57319;56.274;43.980;2023-07-31T05:48:02;98562.84;;;15.55;98.13
69982;BME280;57319;56.274;43.980;2023-07-31T05:50:28;98559.03;;;15.45;97.38
69982;BME280;57319;56.274;43.980;2023-07-31T05:52:54;98564.84;;;15.33;98.42
69982;BME280;57319;56.274;43.980;2023-07-31T05:55:19;98572.41;;;15.37;99.00
69982;BME280;57319;56.274;43.980;2023-07-31T05:57:46;98565.78;;;15.32;98.67
69982;BME280;57319;56.274;43.980;2023-07-31T06:00:13;98568.78;;;15.24;98.81
69982;BME280;57319;56.274;43.980;2023-07-31T06:02:38;98577.81;;;15.15;99.75
69982;BME280;57319;56.274;43.980;2023-07-31T06:05:05;98576.19;;;15.14;100.00
69982;BME280;57319;56.274;43.980;2023-07-31T06:07:32;98579.50;;;15.16;100.00
69982;BME280;57319;56.274;43.980;2023-07-31T06:09:57;98578.78;;;15.14;100.00
69982;BME280;57319;56.274;43.980;2023-07-31T06:12:29;98584.03;;;15.13;100.00
69982;BME280;57319;56.274;43.980;2023-07-31T06:14:54;98581.19;;;15.17;100.00
69982;BME280;57319;56.274;43.980;2023-07-31T06:17:20;98582.63;;;15.23;100.00
69982;BME280;57319;56.274;43.980;2023-07-31T06:19:47;98589.50;;;15.24;100.00
69982;BME280;57319;56.274;43.980;2023-07-31T06:22:12;98594.06;;;15.19;100.00
69982;BME280;57319;56.274;43.980;2023-07-31T06:24:38;98598.44;;;15.18;100.00
69982;BME280;57319;56.274;43.980;2023-07-31T06:27:04;98599.78;;;15.25;100.00
69982;BME280;57319;56.274;43.980;2023-07-31T06:29:31;98610.09;;;15.27;100.00
69982;BME280;57319;56.274;43.980;2023-07-31T06:31:57;98597.94;;;15.27;98.89
69982;BME280;57319;56.274;43.980;2023-07-31T06:34:22;98608.63;;;15.21;98.89
69982;BME280;57319;56.274;43.980;2023-07-31T06:36:48;98603.38;;;15.23;99.59
69982;BME280;57319;56.274;43.980;2023-07-31T06:39:14;98608.56;;;15.23;99.66
69982;BME280;57319;56.274;43.980;2023-07-31T06:41:39;98608.41;;;15.26;99.93
69982;BME280;57319;56.274;43.980;2023-07-31T06:44:05;98618.47;;;15.32;100.00
69982;BME280;57319;56.274;43.980;2023-07-31T06:46:31;98612.22;;;15.36;99.46
69982;BME280;57319;56.274;43.980;2023-07-31T06:48:57;98609.09;;;15.30;99.13
69982;BME280;57319;56.274;43.980;2023-07-31T06:51:22;98618.63;;;15.29;98.78
69982;BME280;57319;56.274;43.980;2023-07-31T06:53:48;98616.88;;;15.30;98.34
69982;BME280;57319;56.274;43.980;2023-07-31T06:56:13;98626.41;;;15.29;98.90
69982;BME280;57319;56.274;43.980;2023-07-31T06:58:39;98627.78;;;15.36;99.42
69982;BME280;57319;56.274;43.980;2023-07-31T07:01:05;98630.19;;;15.39;99.50
69982;BME280;57319;56.274;43.980;2023-07-31T07:03:31;98638.81;;;15.40;98.75
69982;BME280;57319;56.274;43.980;2023-07-31T07:05:57;98639.75;;;15.39;99.32
69982;BME280;57319;56.274;43.980;2023-07-31T07:08:24;98642.19;;;15.42;99.72
69982;BME280;57319;56.274;43.980;2023-07-31T07:10:50;98649.59;;;15.50;100.00
69982;BME280;57319;56.274;43.980;2023-07-31T07:13:15;98649.63;;;15.48;98.95
69982;BME280;57319;56.274;43.980;2023-07-31T07:15:48;98651.78;;;15.40;99.50
69982;BME280;57319;56.274;43.980;2023-07-31T07:18:14;98652.47;;;15.43;99.85
69982;BME280;57319;56.274;43.980;2023-07-31T07:20:39;98652.72;;;15.39;100.00
69982;BME280;57319;56.274;43.980;2023-07-31T07:23:05;98656.97;;;15.40;100.00
69982;BME280;57319;56.274;43.980;2023-07-31T07:25:31;98659.19;;;15.48;100.00
69982;BME280;57319;56.274;43.980;2023-07-31T07:27:57;98657.66;;;15.43;100.00
69982;BME280;57319;56.274;43.980;2023-07-31T07:30:23;98662.13;;;15.40;100.00
69982;BME280;57319;56.274;43.980;2023-07-31T07:32:50;98662.91;;;15.42;100.00
69982;BME280;57319;56.274;43.980;2023-07-31T07:35:16;98665.34;;;15.45;100.00
69982;BME280;57319;56.274;43.980;2023-07-31T07:37:41;98665.13;;;15.50;100.00
69982;BME280;57319;56.274;43.980;2023-07-31T07:40:08;98666.88;;;15.49;100.00
69982;BME280;57319;56.274;43.980;2023-07-31T07:42:33;98672.59;;;15.56;100.00
69982;BME280;57319;56.274;43.980;2023-07-31T07:44:59;98676.47;;;15.65;100.00
69982;BME280;57319;56.274;43.980;2023-07-31T07:47:25;98674.41;;;15.71;100.00
69982;BME280;57319;56.274;43.980;2023-07-31T07:49:50;98670.00;;;15.73;100.00
69982;BME280;57319;56.274;43.980;2023-07-31T07:52:16;98675.31;;;15.88;100.00
69982;BME280;57319;56.274;43.980;2023-07-31T07:54:42;98675.03;;;15.94;100.00
69982;BME280;57319;56.274;43.980;2023-07-31T07:57:07;98679.22;;;15.97;100.00
69982;BME280;57319;56.274;43.980;2023-07-31T07:59:33;98685.84;;;16.02;100.00
69982;BME280;57319;56.274;43.980;2023-07-31T08:01:58;98676.38;;;16.01;100.00
69982;BME280;57319;56.274;43.980;2023-07-31T08:04:24;98680.47;;;16.05;99.62
69982;BME280;57319;56.274;43.980;2023-07-31T08:06:50;98679.41;;;16.09;98.70
69982;BME280;57319;56.274;43.980;2023-07-31T08:09:15;98690.38;;;16.15;97.73
69982;BME280;57319;56.274;43.980;2023-07-31T08:11:41;98679.34;;;16.27;97.58
69982;BME280;57319;56.274;43.980;2023-07-31T08:14:07;98690.09;;;16.37;96.59
69982;BME280;57319;56.274;43.980;2023-07-31T08:16:33;98687.41;;;16.38;95.74
69982;BME280;57319;56.274;43.980;2023-07-31T08:18:58;98689.59;;;16.46;96.01
69982;BME280;57319;56.274;43.980;2023-07-31T08:21:24;98684.16;;;16.51;96.22
69982;BME280;57319;56.274;43.980;2023-07-31T08:23:50;98689.69;;;16.60;95.52
69982;BME280;57319;56.274;43.980;2023-07-31T08:26:17;98694.88;;;16.60;95.87
69982;BME280;57319;56.274;43.980;2023-07-31T08:28:43;98693.88;;;16.63;95.73
69982;BME280;57319;56.274;43.980;2023-07-31T08:31:09;98701.66;;;16.63;96.06
69982;BME280;57319;56.274;43.980;2023-07-31T08:33:36;98699.84;;;16.65;95.34
69982;BME280;57319;56.274;43.980;2023-07-31T08:36:02;98695.28;;;16.69;94.21
69982;BME280;57319;56.274;43.980;2023-07-31T08:38:28;98696.16;;;16.69;93.08
69982;BME280;57319;56.274;43.980;2023-07-31T08:40:57;98703.00;;;16.70;91.86
69982;BME280;57319;56.274;43.980;2023-07-31T08:43:26;98711.81;;;16.84;89.97
69982;BME280;57319;56.274;43.980;2023-07-31T08:45:52;98713.31;;;16.88;90.08
69982;BME280;57319;56.274;43.980;2023-07-31T08:48:19;98706.78;;;16.96;89.61
69982;BME280;57319;56.274;43.980;2023-07-31T08:50:45;98710.66;;;17.05;88.88
69982;BME280;57319;56.274;43.980;2023-07-31T08:53:11;98710.28;;;17.11;89.36
69982;BME280;57319;56.274;43.980;2023-07-31T08:55:38;98711.88;;;17.14;89.06
69982;BME280;57319;56.274;43.980;2023-07-31T08:58:04;98712.88;;;17.11;88.24
69982;BME280;57319;56.274;43.980;2023-07-31T09:00:34;98712.75;;;17.15;87.95
69982;BME280;57319;56.274;43.980;2023-07-31T09:03:09;98713.78;;;17.26;87.83
69982;BME280;57319;56.274;43.980;2023-07-31T09:05:39;98710.53;;;17.23;86.75
69982;BME280;57319;56.274;43.980;2023-07-31T09:08:07;98719.25;;;17.22;86.62
69982;BME280;57319;56.274;43.980;2023-07-31T09:10:34;98723.13;;;17.15;85.42
69982;BME280;57319;56.274;43.980;2023-07-31T09:13:00;98722.69;;;17.22;85.49
69982;BME280;57319;56.274;43.980;2023-07-31T09:15:28;98724.28;;;17.25;85.12
69982;BME280;57319;56.274;43.980;2023-07-31T09:18:04;98716.47;;;17.25;84.30
69982;BME280;57319;56.274;43.980;2023-07-31T09:20:31;98725.69;;;17.30;84.36
69982;BME280;57319;56.274;43.980;2023-07-31T09:23:09;98722.34;;;17.28;82.99
69982;BME280;57319;56.274;43.980;2023-07-31T09:25:36;98731.91;;;17.28;82.45
69982;BME280;57319;56.274;43.980;2023-07-31T09:28:09;98731.28;;;17.39;81.87
69982;BME280;57319;56.274;43.980;2023-07-31T09:30:49;98732.38;;;17.51;81.68
69982;BME280;57319;56.274;43.980;2023-07-31T09:33:16;98737.19;;;17.57;80.43
69982;BME280;57319;56.274;43.980;2023-07-31T09:35:42;98735.00;;;17.65;80.88
69982;BME280;57319;56.274;43.980;2023-07-31T09:38:12;98734.38;;;17.76;81.00
69982;BME280;57319;56.274;43.980;2023-07-31T09:40:40;98742.47;;;17.71;79.54
69982;BME280;57319;56.274;43.980;2023-07-31T09:43:11;98750.47;;;17.83;79.48
69982;BME280;57319;56.274;43.980;2023-07-31T09:45:39;98746.34;;;17.94;79.07
69982;BME280;57319;56.274;43.980;2023-07-31T09:48:09;98752.09;;;18.00;78.69
69982;BME280;57319;56.274;43.980;2023-07-31T09:50:40;98747.84;;;17.99;78.70
69982;BME280;57319;56.274;43.980;2023-07-31T09:53:08;98746.34;;;18.09;78.72
69982;BME280;57319;56.274;43.980;2023-07-31T09:55:37;98751.94;;;18.17;77.42
69982;BME280;57319;56.274;43.980;2023-07-31T09:58:07;98752.44;;;18.38;76.99
69982;BME280;57319;56.274;43.980;2023-07-31T10:00:34;98759.09;;;18.57;74.64
69982;BME280;57319;56.274;43.980;2023-07-31T10:03:02;98763.94;;;18.63;73.02
69982;BME280;57319;56.274;43.980;2023-07-31T10:05:42;98763.53;;;18.84;72.40
69982;BME280;57319;56.274;43.980;2023-07-31T10:08:09;98761.97;;;18.81;71.75
69982;BME280;57319;56.274;43.980;2023-07-31T10:10:36;98773.78;;;18.87;72.47
69982;BME280;57319;56.274;43.980;2023-07-31T10:13:04;98775.84;;;18.96;72.73
69982;BME280;57319;56.274;43.980;2023-07-31T10:15:31;98780.34;;;19.07;70.40
69982;BME280;57319;56.274;43.980;2023-07-31T10:17:58;98769.44;;;19.14;71.30
69982;BME280;57319;56.274;43.980;2023-07-31T10:20:26;98766.41;;;19.35;70.90
69982;BME280;57319;56.274;43.980;2023-07-31T10:22:57;98769.38;;;19.56;70.07
69982;BME280;57319;56.274;43.980;2023-07-31T10:25:23;98758.66;;;19.74;70.31
69982;BME280;57319;56.274;43.980;2023-07-31T10:27:50;98770.38;;;19.81;70.04
69982;BME280;57319;56.274;43.980;2023-07-31T10:30:18;98763.31;;;19.83;67.71
69982;BME280;57319;56.274;43.980;2023-07-31T10:32:45;98772.06;;;19.82;68.44
69982;BME280;57319;56.274;43.980;2023-07-31T10:35:11;98770.66;;;19.76;67.51
69982;BME280;57319;56.274;43.980;2023-07-31T10:37:39;98772.84;;;19.70;66.10
69982;BME280;57319;56.274;43.980;2023-07-31T10:40:07;98777.56;;;19.77;66.84
69982;BME280;57319;56.274;43.980;2023-07-31T10:45:42;98780.47;;;19.73;66.04
69982;BME280;57319;56.274;43.980;2023-07-31T10:48:16;98787.38;;;19.74;66.24
69982;BME280;57319;56.274;43.980;2023-07-31T10:50:48;98788.13;;;19.76;65.67
69982;BME280;57319;56.274;43.980;2023-07-31T10:55:50;98794.16;;;19.76;65.74
69982;BME280;57319;56.274;43.980;2023-07-31T10:58:19;98787.69;;;19.69;65.19
69982;BME280;57319;56.274;43.980;2023-07-31T11:00:46;98791.00;;;19.71;64.08
69982;BME280;57319;56.274;43.980;2023-07-31T11:03:16;98797.09;;;19.72;64.85
69982;BME280;57319;56.274;43.980;2023-07-31T11:08:28;98798.56;;;19.76;64.55
69982;BME280;57319;56.274;43.980;2023-07-31T11:13:40;98804.94;;;19.72;63.95
69982;BME280;57319;56.274;43.980;2023-07-31T11:16:07;98793.06;;;19.80;64.88
69982;BME280;57319;56.274;43.980;2023-07-31T11:18:33;98804.38;;;19.94;64.80
69982;BME280;57319;56.274;43.980;2023-07-31T11:20:59;98802.19;;;20.13;64.55
69982;BME280;57319;56.274;43.980;2023-07-31T11:23:24;98798.22;;;20.46;63.79
69982;BME280;57319;56.274;43.980;2023-07-31T11:25:50;98797.16;;;20.62;63.27
69982;BME280;57319;56.274;43.980;2023-07-31T11:28:18;98802.72;;;20.57;63.08
69982;BME280;57319;56.274;43.980;2023-07-31T11:30:46;98806.59;;;20.77;63.32
69982;BME280;57319;56.274;43.980;2023-07-31T11:33:13;98805.00;;;20.88;63.11
69982;BME280;57319;56.274;43.980;2023-07-31T11:35:43;98805.31;;;20.83;61.69
69982;BME280;57319;56.274;43.980;2023-07-31T11:38:21;98799.97;;;20.84;60.74
69982;BME280;57319;56.274;43.980;2023-07-31T11:40:48;98803.38;;;21.59;58.14
69982;BME280;57319;56.274;43.980;2023-07-31T11:43:15;98799.28;;;21.68;57.79
69982;BME280;57319;56.274;43.980;2023-07-31T11:45:53;98808.22;;;21.52;56.05
69982;BME280;57319;56.274;43.980;2023-07-31T11:48:27;98803.47;;;21.33;57.16
69982;BME280;57319;56.274;43.980;2023-07-31T11:51:08;98799.06;;;21.82;56.70
69982;BME280;57319;56.274;43.980;2023-07-31T11:53:49;98806.75;;;21.97;56.12
69982;BME280;57319;56.274;43.980;2023-07-31T11:56:19;98809.56;;;21.94;55.26
69982;BME280;57319;56.274;43.980;2023-07-31T11:58:47;98808.78;;;21.69;56.21
69982;BME280;57319;56.274;43.980;2023-07-31T12:01:14;98808.34;;;21.75;55.96
69982;BME280;57319;56.274;43.980;2023-07-31T12:03:41;98815.81;;;21.68;54.44
69982;BME280;57319;56.274;43.980;2023-07-31T12:06:08;98812.13;;;21.71;54.24
69982;BME280;57319;56.274;43.980;2023-07-31T12:08:34;98821.34;;;21.88;54.55
69982;BME280;57319;56.274;43.980;2023-07-31T12:11:04;98815.97;;;21.78;53.40
69982;BME280;57319;56.274;43.980;2023-07-31T12:13:31;98812.31;;;21.92;53.84
69982;BME280;57319;56.274;43.980;2023-07-31T12:15:59;98818.03;;;21.86;54.15
69982;BME280;57319;56.274;43.980;2023-07-31T12:18:27;98817.25;;;22.19;54.61
69982;BME280;57319;56.274;43.980;2023-07-31T12:20:59;98823.47;;;22.30;52.60
69982;BME280;57319;56.274;43.980;2023-07-31T12:23:32;98822.75;;;22.16;53.43
69982;BME280;57319;56.274;43.980;2023-07-31T12:26:09;98823.38;;;21.84;54.84
69982;BME280;57319;56.274;43.980;2023-07-31T12:31:15;98841.31;;;21.54;55.38
69982;BME280;57319;56.274;43.980;2023-07-31T12:33:43;98833.03;;;21.47;56.52
69982;BME280;57319;56.274;43.980;2023-07-31T12:36:12;98837.28;;;21.37;56.49
69982;BME280;57319;56.274;43.980;2023-07-31T12:38:38;98835.56;;;21.24;56.54
69982;BME280;57319;56.274;43.980;2023-07-31T12:41:04;98839.16;;;21.10;57.30
69982;BME280;57319;56.274;43.980;2023-07-31T12:43:31;98842.00;;;20.94;58.34
69982;BME280;57319;56.274;43.980;2023-07-31T12:45:57;98842.34;;;20.90;58.76
69982;BME280;57319;56.274;43.980;2023-07-31T12:48:23;98844.31;;;20.86;58.48
69982;BME280;57319;56.274;43.980;2023-07-31T12:50:49;98848.41;;;20.90;58.79
69982;BME280;57319;56.274;43.980;2023-07-31T12:53:17;98856.13;;;20.92;58.88
69982;BME280;57319;56.274;43.980;2023-07-31T12:55:43;98842.13;;;20.93;59.50
69982;BME280;57319;56.274;43.980;2023-07-31T12:58:09;98849.22;;;21.04;59.59
69982;BME280;57319;56.274;43.980;2023-07-31T13:00:35;98851.72;;;21.05;59.73
69982;BME280;57319;56.274;43.980;2023-07-31T13:03:00;98845.22;;;21.11;59.60
69982;BME280;57319;56.274;43.980;2023-07-31T13:05:27;98847.50;;;21.15;59.64